Ottawa Macdonald-Cartier International Airport

CYOW | YOW

Ottawa , Ontario , Canada

Saturday, September 21st, 2019 | 07:39

Weather

CYOW 211100Z 23003KT 15SM MIFG FEW100 FEW240 12/12 A3019 RMK AC1CI2 AC TR SLP226

Charts

No Charts Available

Gates

77 Available

Runways

3 Available

Events

No events for this airport


New event